sensor_id;sensor_type;location;lat;lon;timestamp;temperature;humidity
20162;DHT22;51382;53.180;15.414;2023-07-08T00:03:58;14.40;99.90
20162;DHT22;51382;53.180;15.414;2023-07-08T00:19:11;14.40;99.90
20162;DHT22;51382;53.180;15.414;2023-07-08T00:34:27;13.60;99.90
20162;DHT22;51382;53.180;15.414;2023-07-08T00:49:39;13.10;99.90
20162;DHT22;51382;53.180;15.414;2023-07-08T01:04:56;13.10;99.90
20162;DHT22;51382;53.180;15.414;2023-07-08T01:20:14;13.30;99.90
20162;DHT22;51382;53.180;15.414;2023-07-08T01:35:25;13.20;99.90
20162;DHT22;51382;53.180;15.414;2023-07-08T01:50:38;13.20;99.90
20162;DHT22;51382;53.180;15.414;2023-07-08T02:05:53;13.10;99.90
20162;DHT22;51382;53.180;15.414;2023-07-08T02:21:05;13.30;99.90
20162;DHT22;51382;53.180;15.414;2023-07-08T02:36:17;13.30;99.90
20162;DHT22;51382;53.180;15.414;2023-07-08T02:51:28;13.20;99.90
20162;DHT22;51382;53.180;15.414;2023-07-08T03:06:40;13.10;99.90
20162;DHT22;51382;53.180;15.414;2023-07-08T03:21:47;13.10;99.90
20162;DHT22;51382;53.180;15.414;2023-07-08T03:36:59;12.40;99.90
20162;DHT22;51382;53.180;15.414;2023-07-08T03:52:12;13.30;99.90
20162;DHT22;51382;53.180;15.414;2023-07-08T04:07:26;13.60;99.90
20162;DHT22;51382;53.180;15.414;2023-07-08T04:22:38;14.20;99.90
20162;DHT22;51382;53.180;15.414;2023-07-08T04:37:49;20.00;96.20
20162;DHT22;51382;53.180;15.414;2023-07-08T04:53:02;28.50;65.00
20162;DHT22;51382;53.180;15.414;2023-07-08T05:08:13;28.60;59.10
20162;DHT22;51382;53.180;15.414;2023-07-08T05:23:25;31.40;52.30
20162;DHT22;51382;53.180;15.414;2023-07-08T05:38:37;33.50;48.30
20162;DHT22;51382;53.180;15.414;2023-07-08T05:53:49;30.30;52.40
20162;DHT22;51382;53.180;15.414;2023-07-08T06:09:01;30.40;51.70
20162;DHT22;51382;53.180;15.414;2023-07-08T06:24:12;31.40;48.90
20162;DHT22;51382;53.180;15.414;2023-07-08T06:39:24;32.80;45.60
20162;DHT22;51382;53.180;15.414;2023-07-08T06:54:35;28.80;50.20
20162;DHT22;51382;53.180;15.414;2023-07-08T07:09:46;25.80;57.30
20162;DHT22;51382;53.180;15.414;2023-07-08T07:24:58;35.00;40.90
20162;DHT22;51382;53.180;15.414;2023-07-08T07:40:12;36.40;36.20
20162;DHT22;51382;53.180;15.414;2023-07-08T07:55:24;40.10;32.80
20162;DHT22;51382;53.180;15.414;2023-07-08T08:10:35;37.50;35.00
20162;DHT22;51382;53.180;15.414;2023-07-08T08:25:47;29.20;45.30
20162;DHT22;51382;53.180;15.414;2023-07-08T08:57:50;28.10;47.30
20162;DHT22;51382;53.180;15.414;2023-07-08T09:13:10;27.90;47.50
20162;DHT22;51382;53.180;15.414;2023-07-08T09:28:36;28.20;46.30
20162;DHT22;51382;53.180;15.414;2023-07-08T09:43:49;28.40;45.60
20162;DHT22;51382;53.180;15.414;2023-07-08T09:59:12;28.40;45.10
20162;DHT22;51382;53.180;15.414;2023-07-08T10:14:25;28.50;44.90
20162;DHT22;51382;53.180;15.414;2023-07-08T10:29:41;27.90;45.50
20162;DHT22;51382;53.180;15.414;2023-07-08T10:45:08;27.60;44.10
20162;DHT22;51382;53.180;15.414;2023-07-08T11:00:24;27.90;43.20
20162;DHT22;51382;53.180;15.414;2023-07-08T11:15:48;28.10;44.50
20162;DHT22;51382;53.180;15.414;2023-07-08T11:31:06;28.20;44.40
20162;DHT22;51382;53.180;15.414;2023-07-08T11:46:20;28.40;41.10
20162;DHT22;51382;53.180;15.414;2023-07-08T12:01:39;28.20;42.50
20162;DHT22;51382;53.180;15.414;2023-07-08T12:16:57;28.00;43.20
20162;DHT22;51382;53.180;15.414;2023-07-08T12:32:11;27.80;44.40
20162;DHT22;51382;53.180;15.414;2023-07-08T12:47:23;27.60;43.90
20162;DHT22;51382;53.180;15.414;2023-07-08T13:02:34;28.70;43.70
20162;DHT22;51382;53.180;15.414;2023-07-08T13:17:47;28.10;43.90
20162;DHT22;51382;53.180;15.414;2023-07-08T13:32:59;27.80;44.90
20162;DHT22;51382;53.180;15.414;2023-07-08T13:48:13;27.60;45.40
20162;DHT22;51382;53.180;15.414;2023-07-08T14:03:32;27.50;45.70
20162;DHT22;51382;53.180;15.414;2023-07-08T14:18:43;27.90;44.20
20162;DHT22;51382;53.180;15.414;2023-07-08T14:33:56;27.80;44.90
20162;DHT22;51382;53.180;15.414;2023-07-08T14:49:13;27.50;45.20
20162;DHT22;51382;53.180;15.414;2023-07-08T15:04:26;27.60;46.20
20162;DHT22;51382;53.180;15.414;2023-07-08T15:19:37;27.60;47.00
20162;DHT22;51382;53.180;15.414;2023-07-08T15:34:49;27.50;47.00
20162;DHT22;51382;53.180;15.414;2023-07-08T15:50:01;27.40;48.30
20162;DHT22;51382;53.180;15.414;2023-07-08T16:05:17;27.20;48.50
20162;DHT22;51382;53.180;15.414;2023-07-08T16:20:29;27.10;48.70
20162;DHT22;51382;53.180;15.414;2023-07-08T16:35:41;26.90;50.20
20162;DHT22;51382;53.180;15.414;2023-07-08T16:50:52;26.90;50.80
20162;DHT22;51382;53.180;15.414;2023-07-08T17:06:03;26.50;50.90
20162;DHT22;51382;53.180;15.414;2023-07-08T17:21:15;26.10;51.90
20162;DHT22;51382;53.180;15.414;2023-07-08T17:36:28;25.70;52.70
20162;DHT22;51382;53.180;15.414;2023-07-08T17:51:41;25.30;52.20
20162;DHT22;51382;53.180;15.414;2023-07-08T18:06:52;25.00;52.60
20162;DHT22;51382;53.180;15.414;2023-07-08T18:22:04;24.50;54.10
20162;DHT22;51382;53.180;15.414;2023-07-08T18:37:19;24.10;55.00
20162;DHT22;51382;53.180;15.414;2023-07-08T18:52:32;23.60;56.00
20162;DHT22;51382;53.180;15.414;2023-07-08T19:07:43;22.70;57.90
20162;DHT22;51382;53.180;15.414;2023-07-08T19:22:56;22.30;59.70
20162;DHT22;51382;53.180;15.414;2023-07-08T19:38:08;21.80;61.80
20162;DHT22;51382;53.180;15.414;2023-07-08T19:53:20;21.10;64.90
20162;DHT22;51382;53.180;15.414;2023-07-08T20:08:31;20.50;66.60
20162;DHT22;51382;53.180;15.414;2023-07-08T20:23:43;19.90;71.30
20162;DHT22;51382;53.180;15.414;2023-07-08T20:38:54;18.50;78.40
20162;DHT22;51382;53.180;15.414;2023-07-08T20:54:00;18.30;81.80
20162;DHT22;51382;53.180;15.414;2023-07-08T21:09:12;17.00;89.70
20162;DHT22;51382;53.180;15.414;2023-07-08T21:24:29;16.40;92.00
20162;DHT22;51382;53.180;15.414;2023-07-08T21:39:40;16.20;92.50
20162;DHT22;51382;53.180;15.414;2023-07-08T21:54:53;16.10;93.50
20162;DHT22;51382;53.180;15.414;2023-07-08T22:10:05;16.30;92.50
20162;DHT22;51382;53.180;15.414;2023-07-08T22:25:19;16.40;91.90
20162;DHT22;51382;53.180;15.414;2023-07-08T22:40:32;16.00;93.40
20162;DHT22;51382;53.180;15.414;2023-07-08T22:55:46;14.30;99.90
20162;DHT22;51382;53.180;15.414;2023-07-08T23:10:58;14.20;99.90
20162;DHT22;51382;53.180;15.414;2023-07-08T23:26:10;14.20;99.90
20162;DHT22;51382;53.180;15.414;2023-07-08T23:41:25;14.30;99.90
20162;DHT22;51382;53.180;15.414;2023-07-08T23:56:36;13.90;99.90
